Time;durP1;ratioP1;P1;durP2;ratioP2;P2;SDS_P1;SDS_P2;PMS_P1;PMS_P2;Temp;Humidity;BMP_temperature;BMP_pressure;BME280_temperature;BME280_humidity;BME280_pressure;Samples;Min_cycle;Max_cycle;Signal;HPM_P1;HPM_P2
2024/04/18 00:00:39;;;;;;;;;;;8.40;99.90;;;;;;5451133;26;20436;-73
2024/04/18 00:03:04;;;;;;;7.75;3.33;;;8.40;99.90;;;;;;5418594;26;20466;-74
2024/04/18 00:05:30;;;;;;;;;;;8.40;99.90;;;;;;5451249;26;20009;-73
2024/04/18 00:07:56;;;;;;;4.55;1.55;;;8.40;99.90;;;;;;5418806;26;19931;-74
2024/04/18 00:10:22;;;;;;;;;;;8.40;99.90;;;;;;5419480;26;20077;-72
2024/04/18 00:12:47;;;;;;;2.35;0.73;;;8.40;99.90;;;;;;5450506;26;19931;-73
2024/04/18 00:15:15;;;;;;;;;;;8.40;99.90;;;;;;5419299;26;20083;-73
2024/04/18 00:17:41;;;;;;;1.77;0.55;;;8.30;99.90;;;;;;5450031;26;19995;-73
2024/04/18 00:20:07;;;;;;;;;;;8.30;99.90;;;;;;5451350;26;20007;-74
2024/04/18 00:22:32;;;;;;;2.92;1.00;;;8.30;99.90;;;;;;5418458;26;19924;-73
2024/04/18 00:24:59;;;;;;;;;;;8.30;99.90;;;;;;5451206;26;20002;-72
2024/04/18 00:27:26;;;;;;;3.35;1.33;;;8.30;99.90;;;;;;5419141;26;19931;-73
2024/04/18 00:29:52;;;;;;;2.28;1.20;;;8.30;99.90;;;;;;5450772;26;20100;-73
2024/04/18 00:32:18;;;;;;;;;;;8.20;99.90;;;;;;5418796;26;20006;-72
2024/04/18 00:34:43;;;;;;;3.72;1.65;;;8.10;99.90;;;;;;5450177;26;19997;-74
2024/04/18 00:37:09;;;;;;;;;;;8.10;99.90;;;;;;5450533;26;20010;-73
2024/04/18 00:39:35;;;;;;;2.22;1.20;;;8.10;99.90;;;;;;5418429;26;20347;-74
2024/04/18 00:42:00;;;;;;;;;;;8.00;99.90;;;;;;5418468;26;20468;-72
2024/04/18 00:44:27;;;;;;;4.25;2.13;;;8.00;99.90;;;;;;5449099;26;20012;-73
2024/04/18 00:46:55;;;;;;;4.40;1.75;;;8.00;99.90;;;;;;5418086;26;20003;-74
2024/04/18 00:49:22;;;;;;;3.50;1.80;;;7.90;99.90;;;;;;5449887;26;20039;-73
2024/04/18 00:51:49;;;;;;;8.30;1.95;;;8.00;99.90;;;;;;5449085;26;20009;-72
2024/04/18 00:54:15;;;;;;;6.93;2.33;;;7.90;99.90;;;;;;5449815;26;20448;-73
2024/04/18 00:56:41;;;;;;;;;;;7.90;99.90;;;;;;5450549;26;19998;-73
2024/04/18 00:59:07;;;;;;;4.03;2.35;;;7.80;99.90;;;;;;5410958;26;19924;-73
2024/04/18 01:01:32;;;;;;;;;;;7.70;99.90;;;;;;5418468;26;19999;-73
2024/04/18 01:03:58;;;;;;;8.43;2.13;;;7.70;99.90;;;;;;5449681;26;19924;-73
2024/04/18 01:06:24;;;;;;;;;;;7.60;99.90;;;;;;5450718;26;19999;-71
2024/04/18 01:08:50;;;;;;;3.13;1.73;;;7.60;99.90;;;;;;5418462;26;19928;-73
2024/04/18 01:11:16;;;;;;;3.75;2.20;;;7.60;99.90;;;;;;5418653;26;19995;-73
2024/04/18 01:13:42;;;;;;;;;;;7.60;99.90;;;;;;5450777;26;20009;-74
2024/04/18 01:16:07;;;;;;;4.55;2.35;;;7.60;99.90;;;;;;5452510;26;19932;-73
2024/04/18 01:18:34;;;;;;;;;;;7.50;99.90;;;;;;5455824;26;20003;-73
2024/04/18 01:21:00;;;;;;;3.50;2.20;;;7.60;99.90;;;;;;5452426;26;19931;-73
2024/04/18 01:23:27;;;;;;;3.92;1.90;;;7.50;99.90;;;;;;5453642;26;20834;-73
2024/04/18 01:25:53;;;;;;;5.65;2.75;;;7.50;99.90;;;;;;5455603;26;19999;-73
2024/04/18 01:28:18;;;;;;;;;;;7.50;99.90;;;;;;5455551;26;19999;-73
2024/04/18 01:30:44;;;;;;;3.25;1.60;;;7.60;99.90;;;;;;5447940;26;20472;-74
2024/04/18 01:33:10;;;;;;;;;;;7.60;99.90;;;;;;5450240;26;19999;-73
2024/04/18 01:35:36;;;;;;;3.85;1.83;;;7.60;99.90;;;;;;5447306;26;19925;-73
2024/04/18 01:38:01;;;;;;;;;;;7.60;99.90;;;;;;5418011;26;20022;-74
2024/04/18 01:40:27;;;;;;;4.93;1.80;;;7.60;99.90;;;;;;5449135;26;20402;-73
2024/04/18 01:42:53;;;;;;;;;;;7.60;99.90;;;;;;5417931;26;20019;-72
2024/04/18 01:45:18;;;;;;;3.70;2.13;;;7.60;99.90;;;;;;5449021;26;19994;-73
2024/04/18 01:47:44;;;;;;;;;;;7.60;99.90;;;;;;5417819;26;20011;-72
2024/04/18 01:50:10;;;;;;;3.13;1.77;;;7.60;99.90;;;;;;5449049;26;19932;-73
2024/04/18 01:52:36;;;;;;;;;;;7.60;99.90;;;;;;5417740;26;20006;-73
2024/04/18 01:55:03;;;;;;;4.35;1.92;;;7.60;99.90;;;;;;5417484;26;19931;-73
2024/04/18 01:57:28;;;;;;;6.88;1.85;;;7.60;99.90;;;;;;5452128;26;19999;-73
2024/04/18 01:59:54;;;;;;;;;;;7.60;99.90;;;;;;5421410;26;20017;-73
2024/04/18 02:02:19;;;;;;;5.40;1.98;;;7.60;99.90;;;;;;5420716;26;19924;-72
2024/04/18 02:04:45;;;;;;;;;;;7.50;99.90;;;;;;5452940;26;19994;-73
2024/04/18 02:07:11;;;;;;;4.88;1.90;;;7.50;99.90;;;;;;5420399;26;19931;-73
2024/04/18 02:09:36;;;;;;;;;;;7.50;99.90;;;;;;5421325;26;20009;-73
2024/04/18 02:12:02;;;;;;;4.60;2.28;;;7.50;99.90;;;;;;5451978;26;20278;-73
2024/04/18 02:14:27;;;;;;;;;;;7.50;99.90;;;;;;5452650;26;20455;-73
2024/04/18 02:16:53;;;;;;;3.20;2.10;;;7.50;99.90;;;;;;5452341;26;19936;-74
2024/04/18 02:19:18;;;;;;;;;;;7.50;99.90;;;;;;5452975;26;20003;-73
2024/04/18 02:21:44;;;;;;;3.72;2.40;;;7.60;99.90;;;;;;5420532;26;19924;-73
2024/04/18 02:24:10;;;;;;;;;;;7.60;99.90;;;;;;5452760;26;20013;-73
2024/04/18 02:26:35;;;;;;;4.78;2.15;;;7.60;99.90;;;;;;5452001;26;19930;-73
2024/04/18 02:29:01;;;;;;;;;;;7.50;99.90;;;;;;5452735;26;19998;-73
2024/04/18 02:31:27;;;;;;;3.88;2.08;;;7.50;99.90;;;;;;5452131;26;19925;-73
2024/04/18 02:33:53;;;;;;;;;;;7.60;99.90;;;;;;5420518;26;19999;-73
2024/04/18 02:36:19;;;;;;;4.50;2.10;;;7.60;99.90;;;;;;5449980;26;20370;-73
2024/04/18 02:38:44;;;;;;;4.65;2.20;;;7.60;99.90;;;;;;5451396;26;19999;-73
2024/04/18 02:41:10;;;;;;;;;;;7.50;99.90;;;;;;5452436;26;20340;-73
2024/04/18 02:43:36;;;;;;;3.10;1.77;;;7.50;99.90;;;;;;5450235;26;19931;-73
2024/04/18 02:46:01;;;;;;;;;;;7.50;99.90;;;;;;5452739;26;20002;-74
2024/04/18 02:48:27;;;;;;;4.10;2.10;;;7.50;99.90;;;;;;5449803;26;19931;-73
2024/04/18 02:50:53;;;;;;;3.60;2.03;;;7.50;99.90;;;;;;5419745;26;20021;-73
2024/04/18 02:53:19;;;;;;;;;;;7.50;99.90;;;;;;5450480;26;20456;-73
2024/04/18 02:55:44;;;;;;;2.92;1.70;;;7.50;99.90;;;;;;5451566;26;19932;-73
2024/04/18 02:58:10;;;;;;;;;;;7.50;99.90;;;;;;5420331;26;20087;-72
2024/04/18 03:00:36;;;;;;;2.28;1.30;;;7.50;99.90;;;;;;5419700;26;19925;-72
2024/04/18 03:03:02;;;;;;;3.80;1.80;;;7.50;99.90;;;;;;5451325;26;19998;-73
2024/04/18 03:05:28;;;;;;;;;;;7.60;99.90;;;;;;5452129;26;20444;-73
2024/04/18 03:07:55;;;;;;;2.72;1.45;;;7.60;99.90;;;;;;5449180;26;19994;-73
2024/04/18 03:10:21;;;;;;;4.90;1.80;;;7.60;99.90;;;;;;5419571;26;19994;-73
2024/04/18 03:12:46;;;;;;;;;;;7.50;99.90;;;;;;5452075;26;20321;-72
2024/04/18 03:15:12;;;;;;;3.78;2.05;;;7.50;99.90;;;;;;5419329;26;19989;-72
2024/04/18 03:17:37;;;;;;;;;;;7.50;99.90;;;;;;5451886;26;20527;-73
2024/04/18 03:20:03;;;;;;;3.72;1.85;;;7.50;99.90;;;;;;5449441;26;19931;-73
2024/04/18 03:22:30;;;;;;;;;;;7.40;99.90;;;;;;5451890;26;20010;-72
2024/04/18 03:24:55;;;;;;;2.83;1.48;;;7.40;99.90;;;;;;5451527;26;19993;-72
2024/04/18 03:27:21;;;;;;;;;;;7.40;99.90;;;;;;5452076;26;20010;-72
2024/04/18 03:29:47;;;;;;;2.15;1.10;;;7.30;99.90;;;;;;5451116;26;20384;-72
2024/04/18 03:32:14;;;;;;;;;;;7.30;99.90;;;;;;5451388;26;20002;-72
2024/04/18 03:34:39;;;;;;;;;;;7.30;99.90;;;;;;5449636;26;20350;-72
2024/04/18 03:37:05;;;;;;;3.55;1.70;;;7.30;99.90;;;;;;5419262;26;19931;-73
2024/04/18 03:39:31;;;;;;;;;;;7.30;99.90;;;;;;5419776;26;20002;-72
2024/04/18 03:41:56;;;;;;;3.65;1.35;;;7.30;99.90;;;;;;5450953;26;19928;-72
2024/04/18 03:44:22;;;;;;;;;;;7.30;99.90;;;;;;5451395;26;19994;-71
2024/04/18 03:46:47;;;;;;;7.18;1.33;;;7.20;99.90;;;;;;5450667;26;19924;-71
2024/04/18 03:49:13;;;;;;;;;;;7.20;99.90;;;;;;5419478;26;20075;-72
2024/04/18 03:51:39;;;;;;;3.38;1.13;;;7.20;99.90;;;;;;5449212;26;19932;-74
2024/04/18 03:54:04;;;;;;;;;;;7.20;99.90;;;;;;5451469;26;20083;-73
2024/04/18 03:56:30;;;;;;;1.95;0.93;;;7.30;99.90;;;;;;5418891;26;19936;-74
2024/04/18 03:58:55;;;;;;;;;;;7.40;99.90;;;;;;5451246;26;20006;-72
2024/04/18 04:01:23;;;;;;;1.67;0.70;;;7.40;99.90;;;;;;5449189;26;20369;-73
2024/04/18 04:03:49;;;;;;;2.08;0.88;;;7.40;99.90;;;;;;5450961;26;20340;-72
2024/04/18 04:06:15;;;;;;;;;;;7.40;99.90;;;;;;5451848;26;20080;-73
2024/04/18 04:08:41;;;;;;;2.28;1.10;;;7.30;99.90;;;;;;5419855;26;19924;-73
2024/04/18 04:11:06;;;;;;;;;;;7.30;99.90;;;;;;5451782;26;20010;-73
2024/04/18 04:13:32;;;;;;;3.08;1.10;;;7.30;99.90;;;;;;5424633;26;19932;-74
2024/04/18 04:15:57;;;;;;;;;;;7.30;99.90;;;;;;5426034;26;20013;-76
2024/04/18 04:18:26;;;;;;;1.83;0.73;;;7.40;99.90;;;;;;5451081;26;19924;-74
2024/04/18 04:20:51;;;;;;;1.50;0.75;;;7.40;99.90;;;;;;5451522;26;19998;-72
2024/04/18 04:23:17;;;;;;;;;;;7.40;99.90;;;;;;5451300;26;20014;-73
2024/04/18 04:25:43;;;;;;;1.55;0.73;;;7.40;99.90;;;;;;5418617;26;19925;-72
2024/04/18 04:28:08;;;;;;;;;;;7.40;99.90;;;;;;5451412;26;20003;-73
2024/04/18 04:30:34;;;;;;;4.82;1.00;;;7.40;99.90;;;;;;5450045;26;19924;-72
2024/04/18 04:32:59;;;;;;;;;;;7.40;99.90;;;;;;5451187;26;20021;-73
2024/04/18 04:35:25;;;;;;;1.92;0.60;;;7.40;99.90;;;;;;5448894;26;20357;-73
2024/04/18 04:37:50;;;;;;;;;;;7.40;99.90;;;;;;5451296;26;20511;-73
2024/04/18 04:40:16;;;;;;;1.25;0.65;;;7.40;99.90;;;;;;5450554;26;19930;-73
2024/04/18 04:42:42;;;;;;;;;;;7.40;99.90;;;;;;5419314;26;20015;-73
2024/04/18 04:45:07;;;;;;;3.58;1.08;;;7.40;99.90;;;;;;5451283;26;19924;-77
2024/04/18 04:47:33;;;;;;;;;;;7.40;99.90;;;;;;5425381;26;19999;-77
2024/04/18 04:49:59;;;;;;;1.35;0.60;;;7.30;99.90;;;;;;5454605;26;19949;-73
2024/04/18 04:52:24;;;;;;;;;;;7.30;99.90;;;;;;5422471;26;19995;-74
2024/04/18 04:54:50;;;;;;;3.08;0.70;;;7.30;99.90;;;;;;5457246;26;19925;-73
2024/04/18 04:57:16;;;;;;;;;;;7.30;99.90;;;;;;5424756;26;20002;-74
2024/04/18 04:59:42;;;;;;;1.90;0.70;;;7.40;99.90;;;;;;5456595;26;19931;-75
2024/04/18 05:02:08;;;;;;;1.55;0.70;;;7.40;99.90;;;;;;5418329;26;20035;-73
2024/04/18 05:04:34;;;;;;;;;;;7.40;99.90;;;;;;5450729;26;20528;-73
2024/04/18 05:06:59;;;;;;;1.58;0.60;;;7.40;99.90;;;;;;5448128;26;19932;-73
2024/04/18 05:09:25;;;;;;;;;;;7.40;99.90;;;;;;5450603;26;20006;-74
2024/04/18 05:11:50;;;;;;;2.22;0.70;;;7.40;99.90;;;;;;5447750;26;19992;-72
2024/04/18 05:14:16;;;;;;;;;;;7.40;99.90;;;;;;5449960;26;20071;-74
2024/04/18 05:16:42;;;;;;;1.63;0.77;;;7.40;99.90;;;;;;5449704;26;19948;-71
2024/04/18 05:19:07;;;;;;;;;;;7.40;99.90;;;;;;5450160;26;20006;-73
2024/04/18 05:21:33;;;;;;;2.03;0.93;;;7.50;99.90;;;;;;5449335;26;20365;-73
2024/04/18 05:23:58;;;;;;;;;;;7.50;99.90;;;;;;5450051;26;20009;-71
2024/04/18 05:26:31;;;;;;;1.77;0.50;;;7.60;99.90;;;;;;5417602;26;19924;-71
2024/04/18 05:31:41;;;;;;;4.85;0.93;;;7.70;99.90;;;;;;5449400;26;20035;-72
2024/04/18 05:34:07;;;;;;;;;;;7.80;98.20;;;;;;5449800;26;20003;-72
2024/04/18 05:36:33;;;;;;;2.35;0.60;;;7.80;97.90;;;;;;5449267;26;20025;-72
2024/04/18 05:38:58;;;;;;;;;;;7.90;98.30;;;;;;5417850;26;20054;-72
2024/04/18 05:41:25;;;;;;;2.60;0.80;;;8.00;98.00;;;;;;5449308;26;20441;-72
2024/04/18 05:43:51;;;;;;;3.83;1.98;;;8.00;97.00;;;;;;5417133;26;19999;-73
2024/04/18 05:46:17;;;;;;;;;;;8.00;97.50;;;;;;5449624;26;20013;-71
2024/04/18 05:48:44;;;;;;;2.05;0.80;;;8.00;97.60;;;;;;5449089;26;19936;-72
2024/04/18 05:51:10;;;;;;;2.25;0.80;;;8.10;97.40;;;;;;5448790;26;19995;-72
2024/04/18 05:53:35;;;;;;;;;;;8.10;97.20;;;;;;5447822;26;19999;-72
2024/04/18 05:56:01;;;;;;;2.80;1.00;;;8.20;96.10;;;;;;5449153;26;19931;-72
2024/04/18 05:58:28;;;;;;;;;;;8.20;95.80;;;;;;5449652;26;20010;-72
2024/04/18 06:00:55;;;;;;;5.75;1.40;;;8.20;95.70;;;;;;5448801;26;20344;-71
2024/04/18 06:03:21;;;;;;;4.97;1.40;;;8.30;95.00;;;;;;5448438;26;20003;-73
2024/04/18 06:05:46;;;;;;;;;;;8.30;95.20;;;;;;5417229;26;20030;-71
2024/04/18 06:08:12;;;;;;;4.05;1.15;;;8.30;94.40;;;;;;5448703;26;19924;-72
2024/04/18 06:10:38;;;;;;;;;;;8.30;94.40;;;;;;5449165;26;20685;-72
2024/04/18 06:13:07;;;;;;;3.70;1.08;;;8.30;93.80;;;;;;5448461;26;19931;-73
2024/04/18 06:15:34;;;;;;;6.43;1.45;;;8.30;93.20;;;;;;5416724;26;20101;-73
2024/04/18 06:18:00;;;;;;;9.70;0.93;;;8.30;94.20;;;;;;5448479;26;20003;-72
2024/04/18 06:20:25;;;;;;;;;;;8.20;94.20;;;;;;5449331;26;20009;-72
2024/04/18 06:22:51;;;;;;;2.33;0.95;;;8.30;93.00;;;;;;5448475;26;19924;-72
2024/04/18 06:25:17;;;;;;;;;;;8.40;91.70;;;;;;5417277;26;20451;-71
2024/04/18 06:27:43;;;;;;;5.13;2.72;;;8.40;92.70;;;;;;5448449;26;20421;-72
2024/04/18 06:30:10;;;;;;;3.28;1.45;;;8.40;92.50;;;;;;5416674;26;20039;-71
2024/04/18 06:32:36;;;;;;;7.35;1.45;;;8.40;91.50;;;;;;5448250;26;20005;-72
2024/04/18 06:35:02;;;;;;;3.85;1.02;;;8.40;91.60;;;;;;5416301;26;20027;-73
2024/04/18 06:37:28;;;;;;;;;;;8.50;91.40;;;;;;5417245;26;20076;-71
2024/04/18 06:39:54;;;;;;;3.33;1.20;;;8.50;91.70;;;;;;5416763;26;20480;-72
2024/04/18 06:42:19;;;;;;;;;;;8.60;91.10;;;;;;5419445;26;20009;-73
2024/04/18 06:44:45;;;;;;;3.33;1.38;;;8.60;90.00;;;;;;5452097;26;20210;-72
2024/04/18 06:47:10;;;;;;;;;;;8.70;89.30;;;;;;5420717;26;20428;-72
2024/04/18 06:49:36;;;;;;;7.28;2.60;;;8.70;89.10;;;;;;5452004;26;20396;-72
2024/04/18 06:52:02;;;;;;;;;;;8.90;87.70;;;;;;5420876;26;20450;-72
2024/04/18 06:54:28;;;;;;;2.63;1.00;;;9.00;87.90;;;;;;5450166;26;20366;-75
2024/04/18 06:56:53;;;;;;;;;;;9.10;86.50;;;;;;5452926;26;20002;-72
2024/04/18 06:59:21;;;;;;;7.85;1.45;;;9.30;84.40;;;;;;5451931;26;19931;-72
2024/04/18 07:01:47;;;;;;;2.72;1.00;;;9.30;86.90;;;;;;5419711;26;20035;-71
2024/04/18 07:04:12;;;;;;;3.25;1.30;;;9.50;85.40;;;;;;5451544;26;19999;-73
2024/04/18 07:06:38;;;;;;;;;;;9.60;84.70;;;;;;5452380;26;20010;-73
2024/04/18 07:09:04;;;;;;;3.22;1.20;;;9.70;84.20;;;;;;5451487;26;19939;-72
2024/04/18 07:11:29;;;;;;;;;;;9.90;81.40;;;;;;5420160;26;19995;-72
2024/04/18 07:13:55;;;;;;;9.07;2.20;;;9.90;81.50;;;;;;5451343;26;19924;-73
2024/04/18 07:16:20;;;;;;;;;;;9.90;80.40;;;;;;5419769;26;20017;-73
2024/04/18 07:18:46;;;;;;;3.10;1.27;;;10.00;81.70;;;;;;5419417;26;19924;-73
2024/04/18 07:21:14;;;;;;;;;;;10.30;78.60;;;;;;5419945;26;20013;-72
2024/04/18 07:23:40;;;;;;;3.40;1.13;;;10.80;75.00;;;;;;5449269;26;19948;-73
2024/04/18 07:26:06;;;;;;;;;;;11.00;74.50;;;;;;5420094;26;20009;-75
2024/04/18 07:28:31;;;;;;;8.48;1.17;;;11.10;70.30;;;;;;5449048;26;19949;-74
2024/04/18 07:30:57;;;;;;;;;;;11.30;68.80;;;;;;5419256;26;20010;-74
2024/04/18 07:33:22;;;;;;;3.10;0.98;;;11.40;67.20;;;;;;5449074;26;19930;-73
2024/04/18 07:35:55;;;;;;;;;;;11.30;63.40;;;;;;5419435;26;20011;-74
2024/04/18 07:38:20;;;;;;;5.25;1.30;;;11.30;65.00;;;;;;5448840;26;19967;-74
2024/04/18 07:40:46;;;;;;;;;;;11.30;64.90;;;;;;5451652;26;20075;-75
2024/04/18 07:43:11;;;;;;;4.55;1.33;;;11.30;63.40;;;;;;5450726;26;19925;-74
2024/04/18 07:45:38;;;;;;;;;;;11.30;63.80;;;;;;5451306;26;20007;-73
2024/04/18 07:48:06;;;;;;;4.70;1.25;;;11.40;63.60;;;;;;5450219;26;19931;-72
2024/04/18 07:50:32;;;;;;;8.23;1.35;;;11.40;60.50;;;;;;5417817;26;20003;-73
2024/04/18 07:52:58;;;;;;;4.15;1.10;;;11.30;60.30;;;;;;5450377;26;20097;-73
2024/04/18 07:55:26;;;;;;;3.28;1.35;;;11.30;61.50;;;;;;5449962;26;20529;-73
2024/04/18 07:57:52;;;;;;;4.25;1.10;;;11.50;60.60;;;;;;5418580;26;19999;-73
2024/04/18 08:00:18;;;;;;;;;;;11.70;59.80;;;;;;5450391;26;20017;-72
2024/04/18 08:02:44;;;;;;;3.20;0.80;;;11.80;58.50;;;;;;5449714;26;19924;-72
2024/04/18 08:05:11;;;;;;;;;;;11.90;56.90;;;;;;5451485;26;20002;-72
2024/04/18 08:07:37;;;;;;;5.57;1.30;;;11.90;57.10;;;;;;5450452;26;19936;-73
2024/04/18 08:10:03;;;;;;;3.03;1.17;;;11.70;56.30;;;;;;5418002;26;20002;-72
2024/04/18 08:12:29;;;;;;;2.10;0.70;;;11.70;57.40;;;;;;5411313;26;20014;-73
2024/04/18 08:14:55;;;;;;;;;;;11.60;58.10;;;;;;5450849;26;20024;-72
2024/04/18 08:17:20;;;;;;;1.98;0.57;;;11.90;59.70;;;;;;5418545;26;19925;-74
2024/04/18 08:19:46;;;;;;;;;;;12.20;60.50;;;;;;5450321;26;19999;-73
2024/04/18 08:22:11;;;;;;;2.65;0.50;;;12.50;58.40;;;;;;5418204;26;19925;-73
2024/04/18 08:24:38;;;;;;;;;;;12.80;58.20;;;;;;5451046;26;20017;-73
2024/04/18 08:27:03;;;;;;;3.90;1.00;;;12.90;57.00;;;;;;5450091;26;19997;-73
2024/04/18 08:29:29;;;;;;;;;;;13.00;53.40;;;;;;5418899;26;20014;-72
2024/04/18 08:31:55;;;;;;;4.78;1.00;;;12.80;51.40;;;;;;5450448;26;19932;-73
2024/04/18 08:34:20;;;;;;;6.30;0.70;;;12.70;51.50;;;;;;5418289;26;20339;-74
2024/04/18 08:36:46;;;;;;;;;;;12.70;51.40;;;;;;5418162;26;20336;-73
2024/04/18 08:39:12;;;;;;;1.40;0.55;;;12.70;51.10;;;;;;5449820;26;20022;-74
2024/04/18 08:41:38;;;;;;;1.98;0.73;;;12.80;52.90;;;;;;5449962;26;20013;-73
2024/04/18 08:44:06;;;;;;;1.65;0.50;;;13.30;53.60;;;;;;5450650;26;20447;-74
2024/04/18 08:46:36;;;;;;;1.48;0.60;;;13.70;53.90;;;;;;5418122;26;20030;-74
2024/04/18 08:49:05;;;;;;;4.60;0.90;;;14.10;51.50;;;;;;5449649;26;20535;-74
2024/04/18 08:51:32;;;;;;;2.13;0.70;;;14.10;49.60;;;;;;5417963;26;19998;-74
2024/04/18 08:53:58;;;;;;;3.78;1.20;;;14.20;48.40;;;;;;5449848;26;20003;-74
2024/04/18 08:56:24;;;;;;;;;;;14.10;49.20;;;;;;5450414;26;20030;-74
2024/04/18 08:58:50;;;;;;;3.27;1.23;;;14.30;48.00;;;;;;5450136;26;20311;-73
2024/04/18 09:01:16;;;;;;;;;;;14.40;49.10;;;;;;5418880;26;20027;-74
2024/04/18 09:03:42;;;;;;;5.00;1.20;;;14.40;48.00;;;;;;5447514;26;19937;-73
2024/04/18 09:06:09;;;;;;;2.45;0.88;;;14.40;48.70;;;;;;5417601;26;20335;-73
2024/04/18 09:08:37;;;;;;;2.22;0.80;;;14.90;51.60;;;;;;5417969;26;20026;-73
2024/04/18 09:11:04;;;;;;;1.38;0.57;;;15.90;51.50;;;;;;5417731;26;20002;-74
2024/04/18 09:13:30;;;;;;;3.55;0.77;;;17.00;50.30;;;;;;5417751;26;20071;-74
2024/04/18 09:15:56;;;;;;;1.30;0.65;;;17.90;47.10;;;;;;5417720;26;20017;-73
2024/04/18 09:18:22;;;;;;;6.38;0.90;;;18.60;45.30;;;;;;5417881;26;20471;-76
2024/04/18 09:20:48;;;;;;;1.60;0.80;;;19.40;44.30;;;;;;5449280;26;20463;-74
2024/04/18 09:23:14;;;;;;;2.38;0.77;;;20.20;40.10;;;;;;5417252;26;20003;-75
2024/04/18 09:25:41;;;;;;;3.03;0.80;;;20.60;39.50;;;;;;5449375;26;20079;-75
2024/04/18 09:28:06;;;;;;;4.88;0.90;;;20.70;33.10;;;;;;5448777;26;20007;-73
2024/04/18 09:30:34;;;;;;;2.03;0.90;;;20.60;34.50;;;;;;5417629;26;20029;-74
2024/04/18 09:33:02;;;;;;;4.20;1.27;;;20.50;36.20;;;;;;5416967;26;20424;-74
2024/04/18 09:35:32;;;;;;;2.40;0.60;;;20.20;36.00;;;;;;5417313;26;20448;-74
2024/04/18 09:37:57;;;;;;;2.90;0.85;;;20.00;35.60;;;;;;5449078;26;20436;-73
2024/04/18 09:40:26;;;;;;;3.83;0.73;;;19.90;31.60;;;;;;5417085;26;20014;-74
2024/04/18 09:43:11;;;;;;;2.10;0.55;;;18.90;34.80;;;;;;5417263;26;19998;-74
2024/04/18 09:45:47;;;;;;;3.80;0.60;;;18.20;37.00;;;;;;5448797;26;20027;-74
2024/04/18 09:48:14;;;;;;;3.75;0.90;;;17.70;39.00;;;;;;5449143;26;19998;-74
2024/04/18 09:50:41;;;;;;;3.90;0.88;;;17.30;40.00;;;;;;5449011;26;20007;-74
2024/04/18 09:53:08;;;;;;;1.65;0.73;;;16.70;40.70;;;;;;5449076;26;20010;-74
2024/04/18 09:55:35;;;;;;;2.75;0.88;;;16.20;40.50;;;;;;5416667;26;20003;-74
2024/04/18 09:58:02;;;;;;;2.58;1.20;;;15.80;41.50;;;;;;5448891;26;20074;-75
2024/04/18 10:00:28;;;;;;;3.13;1.00;;;15.80;41.00;;;;;;5448768;26;19999;-74
2024/04/18 10:02:56;;;;;;;2.33;0.73;;;16.10;40.40;;;;;;5416870;26;19999;-74
2024/04/18 10:05:23;;;;;;;1.05;0.52;;;16.70;38.20;;;;;;5448535;26;20006;-74
2024/04/18 10:07:50;;;;;;;6.97;1.85;;;17.00;35.70;;;;;;5416900;26;20003;-74
2024/04/18 10:10:18;;;;;;;2.65;0.65;;;17.00;36.00;;;;;;5416686;26;20038;-74
2024/04/18 10:12:44;;;;;;;5.13;1.17;;;16.70;35.30;;;;;;5449190;26;19999;-74
2024/04/18 10:15:10;;;;;;;2.90;1.30;;;16.00;36.10;;;;;;5448253;26;19999;-74
2024/04/18 10:17:35;;;;;;;2.47;0.57;;;15.60;39.10;;;;;;5450972;26;20010;-74
2024/04/18 10:20:05;;;;;;;1.63;0.75;;;15.80;38.50;;;;;;5451951;26;20018;-74
2024/04/18 10:22:34;;;;;;;1.40;0.32;;;16.70;36.10;;;;;;5451970;26;19995;-73
2024/04/18 10:25:00;;;;;;;2.63;0.50;;;17.50;30.30;;;;;;5451456;26;19999;-74
2024/04/18 10:27:25;;;;;;;2.13;0.88;;;17.80;32.10;;;;;;5450822;26;20764;-74
2024/04/18 10:29:56;;;;;;;1.27;0.50;;;18.10;32.60;;;;;;5451349;26;20002;-73
2024/04/18 10:32:31;;;;;;;1.83;0.40;;;18.40;33.20;;;;;;5419309;26;20007;-74
2024/04/18 10:35:02;;;;;;;1.27;0.40;;;18.50;31.90;;;;;;5419784;26;19999;-75
2024/04/18 10:37:27;;;;;;;1.00;0.50;;;18.00;30.00;;;;;;5451839;26;20076;-74
2024/04/18 10:39:55;;;;;;;0.93;0.40;;;17.60;29.80;;;;;;5451867;26;20452;-74
2024/04/18 10:42:22;;;;;;;0.93;0.40;;;17.30;30.30;;;;;;5450401;26;20293;-75
2024/04/18 10:44:49;;;;;;;2.05;0.40;;;17.20;30.60;;;;;;5451670;26;20447;-74
2024/04/18 10:47:21;;;;;;;4.82;0.60;;;16.80;31.60;;;;;;5450916;26;19999;-74
2024/04/18 10:49:47;;;;;;;2.00;0.50;;;16.40;34.00;;;;;;5450816;26;19995;-73
2024/04/18 10:52:17;;;;;;;2.10;0.50;;;15.90;34.20;;;;;;5451551;26;20014;-74
2024/04/18 10:54:43;;;;;;;1.08;0.55;;;15.40;33.20;;;;;;5419422;26;20356;-73
2024/04/18 10:57:09;;;;;;;1.63;0.47;;;15.00;34.00;;;;;;5419282;26;20003;-74
2024/04/18 10:59:43;;;;;;;2.67;0.90;;;14.80;35.30;;;;;;5419544;26;20017;-72
2024/04/18 11:02:10;;;;;;;0.57;0.30;;;14.70;36.20;;;;;;5451199;26;20002;-74
2024/04/18 11:04:36;;;;;;;2.53;0.60;;;14.50;36.50;;;;;;5450675;26;19999;-74
2024/04/18 11:07:02;;;;;;;2.15;1.05;;;14.50;36.80;;;;;;5451153;26;20348;-74
2024/04/18 11:09:28;;;;;;;3.05;0.63;;;14.50;36.50;;;;;;5451082;26;20013;-73
2024/04/18 11:11:54;;;;;;;2.63;0.73;;;14.60;36.60;;;;;;5451278;26;19999;-74
2024/04/18 11:14:21;;;;;;;1.48;0.45;;;14.70;37.00;;;;;;5450934;26;20451;-74
2024/04/18 11:16:55;;;;;;;1.48;0.40;;;14.80;37.30;;;;;;5451383;26;20007;-74
2024/04/18 11:19:21;;;;;;;7.97;2.97;;;15.00;35.20;;;;;;5419562;26;20003;-74
2024/04/18 11:21:50;;;;;;;6.47;3.95;;;15.10;31.60;;;;;;5419368;26;20764;-74
2024/04/18 11:24:16;;;;;;;3.50;0.80;;;15.00;31.40;;;;;;5419258;26;20074;-74
2024/04/18 11:26:42;;;;;;;1.42;0.45;;;14.90;33.80;;;;;;5419016;26;20017;-74
2024/04/18 11:29:08;;;;;;;1.20;0.40;;;14.80;34.20;;;;;;5450730;26;20332;-74
2024/04/18 11:31:33;;;;;;;3.25;1.23;;;14.70;34.50;;;;;;5450939;26;20011;-74
2024/04/18 11:33:59;;;;;;;6.55;2.95;;;14.60;36.20;;;;;;5450681;26;20010;-74
2024/04/18 11:36:25;;;;;;;8.70;0.73;;;14.40;36.10;;;;;;5418844;26;19995;-74
2024/04/18 11:38:51;;;;;;;;;;;14.30;34.70;;;;;;5451495;26;20006;-74
2024/04/18 11:41:17;;;;;;;3.00;1.10;;;14.10;35.20;;;;;;5449196;26;19924;-74
2024/04/18 11:43:43;;;;;;;2.15;0.70;;;13.80;35.50;;;;;;5450571;26;20071;-73
2024/04/18 11:46:10;;;;;;;5.43;1.38;;;13.80;33.50;;;;;;5450099;26;20014;-74
2024/04/18 11:48:37;;;;;;;1.63;0.50;;;13.70;33.50;;;;;;5451086;26;20031;-74
2024/04/18 11:51:03;;;;;;;1.70;0.60;;;13.90;36.40;;;;;;5451459;26;20084;-73
2024/04/18 11:53:30;;;;;;;1.80;0.30;;;14.10;35.80;;;;;;5418868;26;19999;-73
2024/04/18 11:55:56;;;;;;;1.38;0.38;;;14.40;36.70;;;;;;5419027;26;20087;-73
2024/04/18 11:58:22;;;;;;;1.08;0.32;;;14.70;38.00;;;;;;5450584;26;20435;-74
2024/04/18 12:00:47;;;;;;;;;;;14.90;38.90;;;;;;5419490;26;20091;-74
2024/04/18 12:03:13;;;;;;;1.40;0.52;;;15.20;35.10;;;;;;5450586;26;19924;-73
2024/04/18 12:05:39;;;;;;;1.80;0.60;;;15.40;35.60;;;;;;5418736;26;20014;-73
2024/04/18 12:08:05;;;;;;;1.00;0.40;;;15.70;35.60;;;;;;5418837;26;20452;-74
2024/04/18 12:10:31;;;;;;;1.30;0.40;;;15.90;34.10;;;;;;5418917;26;20006;-74
2024/04/18 12:12:57;;;;;;;0.95;0.40;;;16.00;32.30;;;;;;5450462;26;20766;-74
2024/04/18 12:15:22;;;;;;;2.60;0.43;;;15.80;32.10;;;;;;5450187;26;20463;-74
2024/04/18 12:17:48;;;;;;;1.92;0.40;;;15.80;31.80;;;;;;5449709;26;20022;-74
2024/04/18 12:20:14;;;;;;;2.30;0.50;;;15.70;30.90;;;;;;5449892;26;20010;-74
2024/04/18 12:22:40;;;;;;;1.08;0.43;;;15.80;33.20;;;;;;5449838;26;20002;-74
2024/04/18 12:25:05;;;;;;;1.30;0.50;;;15.80;34.20;;;;;;5418392;26;20014;-75
2024/04/18 12:27:31;;;;;;;1.95;0.50;;;15.90;36.20;;;;;;5450204;26;20009;-77
2024/04/18 12:29:57;;;;;;;1.30;0.45;;;16.00;33.80;;;;;;5418067;26;20471;-74
2024/04/18 12:32:24;;;;;;;0.60;0.30;;;16.20;33.50;;;;;;5449737;26;19998;-74
2024/04/18 12:34:50;;;;;;;0.90;0.30;;;16.20;30.30;;;;;;5449550;26;20030;-73
2024/04/18 12:37:16;;;;;;;0.85;0.32;;;16.10;30.40;;;;;;5417258;26;20017;-75
2024/04/18 12:39:45;;;;;;;1.00;0.30;;;16.20;32.40;;;;;;5415991;26;20030;-74
2024/04/18 12:42:11;;;;;;;0.70;0.35;;;16.60;33.40;;;;;;5449403;26;19999;-74
2024/04/18 12:44:37;;;;;;;2.30;0.30;;;16.90;33.70;;;;;;5449191;26;19994;-73
2024/04/18 12:47:02;;;;;;;1.95;0.30;;;17.20;33.00;;;;;;5449982;26;20023;-74
2024/04/18 12:49:28;;;;;;;1.80;0.73;;;17.40;30.60;;;;;;5418187;26;20439;-73
2024/04/18 12:51:54;;;;;;;1.95;0.40;;;17.50;29.90;;;;;;5417581;26;19995;-74
2024/04/18 12:54:19;;;;;;;10.50;0.40;;;17.60;30.00;;;;;;5417576;26;20010;-74
2024/04/18 12:56:47;;;;;;;1.20;0.40;;;17.50;29.90;;;;;;5417773;26;20003;-73
2024/04/18 12:59:14;;;;;;;2.70;0.50;;;17.40;30.60;;;;;;5449311;26;20013;-74
2024/04/18 13:01:41;;;;;;;122.10;64.75;;;17.30;33.10;;;;;;5449589;26;20085;-74
2024/04/18 13:04:06;;;;;;;16.35;8.60;;;17.20;33.20;;;;;;5449354;26;20007;-74
2024/04/18 13:06:32;;;;;;;2.50;0.93;;;17.00;34.30;;;;;;5417557;26;20059;-74
2024/04/18 13:08:58;;;;;;;5.32;3.22;;;16.80;34.20;;;;;;5449678;26;19999;-74
2024/04/18 13:11:24;;;;;;;2.97;1.25;;;16.40;31.80;;;;;;5449369;26;20018;-73
2024/04/18 13:13:49;;;;;;;6.40;0.85;;;16.10;32.50;;;;;;5441568;26;20009;-74